sensor_id;sensor_type;location;lat;lon;timestamp;P1;durP1;ratioP1;P2;durP2;ratioP2
3487;SDS011;38546;48.170;11.724;2023-06-19T00:02:42;15.57;;;12.07;;
3487;SDS011;38546;48.170;11.724;2023-06-19T00:05:32;14.47;;;11.90;;
3487;SDS011;38546;48.170;11.724;2023-06-19T00:08:21;15.37;;;12.57;;
3487;SDS011;38546;48.170;11.724;2023-06-19T00:11:11;16.63;;;12.00;;
3487;SDS011;38546;48.170;11.724;2023-06-19T00:14:00;13.20;;;11.80;;
3487;SDS011;38546;48.170;11.724;2023-06-19T00:16:49;12.73;;;11.30;;
3487;SDS011;38546;48.170;11.724;2023-06-19T00:19:39;14.80;;;11.40;;
3487;SDS011;38546;48.170;11.724;2023-06-19T00:22:29;14.10;;;12.00;;
3487;SDS011;38546;48.170;11.724;2023-06-19T00:25:18;13.70;;;12.23;;
3487;SDS011;38546;48.170;11.724;2023-06-19T00:28:08;17.10;;;12.57;;
3487;SDS011;38546;48.170;11.724;2023-06-19T00:31:00;15.20;;;12.27;;
3487;SDS011;38546;48.170;11.724;2023-06-19T00:33:49;16.20;;;12.30;;
3487;SDS011;38546;48.170;11.724;2023-06-19T00:36:39;14.80;;;12.13;;
3487;SDS011;38546;48.170;11.724;2023-06-19T00:39:29;14.83;;;12.10;;
3487;SDS011;38546;48.170;11.724;2023-06-19T00:42:18;15.40;;;12.00;;
3487;SDS011;38546;48.170;11.724;2023-06-19T00:45:07;14.73;;;12.20;;
3487;SDS011;38546;48.170;11.724;2023-06-19T00:47:58;16.13;;;13.07;;
3487;SDS011;38546;48.170;11.724;2023-06-19T00:50:49;16.60;;;13.10;;
3487;SDS011;38546;48.170;11.724;2023-06-19T00:53:39;14.80;;;12.27;;
3487;SDS011;38546;48.170;11.724;2023-06-19T00:56:28;15.10;;;12.33;;
3487;SDS011;38546;48.170;11.724;2023-06-19T00:59:18;16.70;;;13.87;;
3487;SDS011;38546;48.170;11.724;2023-06-19T01:02:08;15.07;;;13.17;;
3487;SDS011;38546;48.170;11.724;2023-06-19T01:04:58;16.37;;;12.83;;
3487;SDS011;38546;48.170;11.724;2023-06-19T01:07:52;15.47;;;12.87;;
3487;SDS011;38546;48.170;11.724;2023-06-19T01:14:23;16.97;;;12.43;;
3487;SDS011;38546;48.170;11.724;2023-06-19T01:17:17;15.27;;;12.40;;
3487;SDS011;38546;48.170;11.724;2023-06-19T01:20:06;16.67;;;14.03;;
3487;SDS011;38546;48.170;11.724;2023-06-19T01:23:08;19.90;;;13.03;;
3487;SDS011;38546;48.170;11.724;2023-06-19T01:25:59;20.77;;;14.70;;
3487;SDS011;38546;48.170;11.724;2023-06-19T01:28:48;16.63;;;13.50;;
3487;SDS011;38546;48.170;11.724;2023-06-19T01:31:38;17.27;;;14.33;;
3487;SDS011;38546;48.170;11.724;2023-06-19T01:34:40;13.93;;;12.43;;
3487;SDS011;38546;48.170;11.724;2023-06-19T01:37:30;19.53;;;15.30;;
3487;SDS011;38546;48.170;11.724;2023-06-19T01:40:21;17.83;;;15.50;;
3487;SDS011;38546;48.170;11.724;2023-06-19T01:43:14;16.10;;;12.57;;
3487;SDS011;38546;48.170;11.724;2023-06-19T01:46:04;13.43;;;11.80;;
3487;SDS011;38546;48.170;11.724;2023-06-19T01:48:53;15.30;;;12.97;;
3487;SDS011;38546;48.170;11.724;2023-06-19T01:51:42;16.43;;;13.50;;
3487;SDS011;38546;48.170;11.724;2023-06-19T01:54:31;14.87;;;12.63;;
3487;SDS011;38546;48.170;11.724;2023-06-19T01:57:20;14.63;;;12.70;;
3487;SDS011;38546;48.170;11.724;2023-06-19T02:00:09;15.80;;;13.93;;
3487;SDS011;38546;48.170;11.724;2023-06-19T02:02:59;16.97;;;13.33;;
3487;SDS011;38546;48.170;11.724;2023-06-19T02:05:48;16.77;;;13.67;;
3487;SDS011;38546;48.170;11.724;2023-06-19T02:08:37;17.87;;;13.13;;
3487;SDS011;38546;48.170;11.724;2023-06-19T02:11:26;14.93;;;12.77;;
3487;SDS011;38546;48.170;11.724;2023-06-19T02:14:15;17.23;;;12.90;;
3487;SDS011;38546;48.170;11.724;2023-06-19T02:17:04;17.30;;;12.70;;
3487;SDS011;38546;48.170;11.724;2023-06-19T02:19:54;20.20;;;12.93;;
3487;SDS011;38546;48.170;11.724;2023-06-19T02:22:42;16.87;;;14.23;;
3487;SDS011;38546;48.170;11.724;2023-06-19T02:25:31;15.13;;;12.63;;
3487;SDS011;38546;48.170;11.724;2023-06-19T02:28:22;16.93;;;12.23;;
3487;SDS011;38546;48.170;11.724;2023-06-19T02:31:10;14.60;;;12.13;;
3487;SDS011;38546;48.170;11.724;2023-06-19T02:33:59;15.27;;;12.97;;
3487;SDS011;38546;48.170;11.724;2023-06-19T02:36:48;16.30;;;13.00;;
3487;SDS011;38546;48.170;11.724;2023-06-19T02:39:38;18.83;;;14.77;;
3487;SDS011;38546;48.170;11.724;2023-06-19T02:42:26;19.73;;;13.03;;
3487;SDS011;38546;48.170;11.724;2023-06-19T02:45:15;13.40;;;12.00;;
3487;SDS011;38546;48.170;11.724;2023-06-19T02:48:05;15.33;;;13.50;;
3487;SDS011;38546;48.170;11.724;2023-06-19T02:50:54;13.90;;;11.90;;
3487;SDS011;38546;48.170;11.724;2023-06-19T02:53:43;16.13;;;13.23;;
3487;SDS011;38546;48.170;11.724;2023-06-19T02:56:32;16.13;;;14.07;;
3487;SDS011;38546;48.170;11.724;2023-06-19T02:59:21;16.10;;;13.67;;
3487;SDS011;38546;48.170;11.724;2023-06-19T03:02:11;18.20;;;13.20;;
3487;SDS011;38546;48.170;11.724;2023-06-19T03:05:00;14.60;;;12.90;;
3487;SDS011;38546;48.170;11.724;2023-06-19T03:07:50;18.33;;;13.37;;
3487;SDS011;38546;48.170;11.724;2023-06-19T03:10:40;16.73;;;13.20;;
3487;SDS011;38546;48.170;11.724;2023-06-19T03:13:31;17.47;;;14.70;;
3487;SDS011;38546;48.170;11.724;2023-06-19T03:16:33;16.77;;;13.87;;
3487;SDS011;38546;48.170;11.724;2023-06-19T03:19:23;16.60;;;13.03;;
3487;SDS011;38546;48.170;11.724;2023-06-19T03:22:12;17.67;;;13.13;;
3487;SDS011;38546;48.170;11.724;2023-06-19T03:25:01;14.80;;;12.97;;
3487;SDS011;38546;48.170;11.724;2023-06-19T03:27:51;16.40;;;12.47;;
3487;SDS011;38546;48.170;11.724;2023-06-19T03:30:41;16.53;;;13.60;;
3487;SDS011;38546;48.170;11.724;2023-06-19T03:33:30;15.70;;;13.83;;
3487;SDS011;38546;48.170;11.724;2023-06-19T03:36:19;15.60;;;13.87;;
3487;SDS011;38546;48.170;11.724;2023-06-19T03:39:09;17.67;;;13.70;;
3487;SDS011;38546;48.170;11.724;2023-06-19T03:41:59;16.33;;;13.33;;
3487;SDS011;38546;48.170;11.724;2023-06-19T03:44:48;17.07;;;12.97;;
3487;SDS011;38546;48.170;11.724;2023-06-19T03:47:37;16.37;;;13.40;;
3487;SDS011;38546;48.170;11.724;2023-06-19T03:50:26;15.57;;;13.07;;
3487;SDS011;38546;48.170;11.724;2023-06-19T03:53:15;16.37;;;13.10;;
3487;SDS011;38546;48.170;11.724;2023-06-19T03:56:05;19.80;;;14.23;;
3487;SDS011;38546;48.170;11.724;2023-06-19T03:58:55;18.60;;;14.73;;
3487;SDS011;38546;48.170;11.724;2023-06-19T04:01:44;18.17;;;14.60;;
3487;SDS011;38546;48.170;11.724;2023-06-19T04:04:34;16.40;;;13.53;;
3487;SDS011;38546;48.170;11.724;2023-06-19T04:07:23;16.27;;;13.97;;
3487;SDS011;38546;48.170;11.724;2023-06-19T04:10:12;15.93;;;13.43;;
3487;SDS011;38546;48.170;11.724;2023-06-19T04:13:01;17.10;;;13.70;;
3487;SDS011;38546;48.170;11.724;2023-06-19T04:15:51;15.00;;;13.07;;
3487;SDS011;38546;48.170;11.724;2023-06-19T04:18:41;21.30;;;13.33;;
3487;SDS011;38546;48.170;11.724;2023-06-19T04:21:31;17.83;;;13.53;;
3487;SDS011;38546;48.170;11.724;2023-06-19T04:24:20;15.63;;;13.23;;
3487;SDS011;38546;48.170;11.724;2023-06-19T04:27:09;17.83;;;15.00;;
3487;SDS011;38546;48.170;11.724;2023-06-19T04:29:58;14.63;;;12.67;;
3487;SDS011;38546;48.170;11.724;2023-06-19T04:32:47;17.30;;;13.60;;
3487;SDS011;38546;48.170;11.724;2023-06-19T04:35:37;16.27;;;14.27;;
3487;SDS011;38546;48.170;11.724;2023-06-19T04:38:28;16.33;;;13.93;;
3487;SDS011;38546;48.170;11.724;2023-06-19T04:41:18;20.50;;;15.00;;
3487;SDS011;38546;48.170;11.724;2023-06-19T04:44:07;18.33;;;15.10;;
3487;SDS011;38546;48.170;11.724;2023-06-19T04:46:57;17.33;;;13.30;;
3487;SDS011;38546;48.170;11.724;2023-06-19T04:49:49;18.33;;;14.30;;
3487;SDS011;38546;48.170;11.724;2023-06-19T04:52:38;19.63;;;13.10;;
3487;SDS011;38546;48.170;11.724;2023-06-19T04:55:27;17.57;;;14.23;;
3487;SDS011;38546;48.170;11.724;2023-06-19T04:58:16;16.53;;;13.87;;
3487;SDS011;38546;48.170;11.724;2023-06-19T05:01:06;23.00;;;14.10;;
3487;SDS011;38546;48.170;11.724;2023-06-19T05:03:58;16.83;;;14.27;;
3487;SDS011;38546;48.170;11.724;2023-06-19T05:06:49;17.33;;;13.40;;
3487;SDS011;38546;48.170;11.724;2023-06-19T05:09:39;16.40;;;13.70;;
3487;SDS011;38546;48.170;11.724;2023-06-19T05:12:28;15.40;;;12.70;;
3487;SDS011;38546;48.170;11.724;2023-06-19T05:15:17;14.90;;;13.17;;
3487;SDS011;38546;48.170;11.724;2023-06-19T05:18:07;16.10;;;13.33;;
3487;SDS011;38546;48.170;11.724;2023-06-19T05:20:56;16.27;;;13.40;;
3487;SDS011;38546;48.170;11.724;2023-06-19T05:23:45;15.47;;;13.40;;
3487;SDS011;38546;48.170;11.724;2023-06-19T05:26:39;16.53;;;13.93;;
3487;SDS011;38546;48.170;11.724;2023-06-19T05:29:28;18.00;;;12.63;;
3487;SDS011;38546;48.170;11.724;2023-06-19T05:32:19;16.57;;;12.80;;
3487;SDS011;38546;48.170;11.724;2023-06-19T05:35:08;18.87;;;14.10;;
3487;SDS011;38546;48.170;11.724;2023-06-19T05:37:58;17.60;;;14.00;;
3487;SDS011;38546;48.170;11.724;2023-06-19T05:40:47;14.37;;;12.40;;
3487;SDS011;38546;48.170;11.724;2023-06-19T05:43:37;16.33;;;13.53;;
3487;SDS011;38546;48.170;11.724;2023-06-19T05:46:27;19.47;;;14.77;;
3487;SDS011;38546;48.170;11.724;2023-06-19T05:49:16;16.40;;;13.97;;
3487;SDS011;38546;48.170;11.724;2023-06-19T05:52:05;17.57;;;13.43;;
3487;SDS011;38546;48.170;11.724;2023-06-19T05:54:55;16.93;;;13.93;;
3487;SDS011;38546;48.170;11.724;2023-06-19T05:57:46;18.13;;;14.70;;
3487;SDS011;38546;48.170;11.724;2023-06-19T06:00:36;18.03;;;14.20;;
3487;SDS011;38546;48.170;11.724;2023-06-19T06:03:25;19.90;;;14.90;;
3487;SDS011;38546;48.170;11.724;2023-06-19T06:06:16;22.00;;;14.43;;
3487;SDS011;38546;48.170;11.724;2023-06-19T06:09:05;18.80;;;14.70;;
3487;SDS011;38546;48.170;11.724;2023-06-19T06:11:59;23.07;;;14.10;;
3487;SDS011;38546;48.170;11.724;2023-06-19T06:14:49;19.00;;;13.20;;
3487;SDS011;38546;48.170;11.724;2023-06-19T06:17:39;15.73;;;13.00;;
3487;SDS011;38546;48.170;11.724;2023-06-19T06:20:28;19.77;;;13.07;;
3487;SDS011;38546;48.170;11.724;2023-06-19T06:23:17;18.03;;;14.00;;
3487;SDS011;38546;48.170;11.724;2023-06-19T06:26:06;23.40;;;14.00;;
3487;SDS011;38546;48.170;11.724;2023-06-19T06:28:55;16.70;;;13.10;;
3487;SDS011;38546;48.170;11.724;2023-06-19T06:31:45;18.27;;;13.70;;
3487;SDS011;38546;48.170;11.724;2023-06-19T06:34:35;24.70;;;14.93;;
3487;SDS011;38546;48.170;11.724;2023-06-19T06:37:25;18.60;;;15.20;;
3487;SDS011;38546;48.170;11.724;2023-06-19T06:40:15;17.97;;;14.10;;
3487;SDS011;38546;48.170;11.724;2023-06-19T06:43:04;24.17;;;16.27;;
3487;SDS011;38546;48.170;11.724;2023-06-19T06:45:54;20.07;;;15.67;;
3487;SDS011;38546;48.170;11.724;2023-06-19T06:48:43;20.27;;;13.93;;
3487;SDS011;38546;48.170;11.724;2023-06-19T06:51:33;21.80;;;15.30;;
3487;SDS011;38546;48.170;11.724;2023-06-19T06:54:23;18.43;;;14.00;;
3487;SDS011;38546;48.170;11.724;2023-06-19T06:57:13;20.87;;;14.57;;
3487;SDS011;38546;48.170;11.724;2023-06-19T07:00:04;23.53;;;15.20;;
3487;SDS011;38546;48.170;11.724;2023-06-19T07:02:56;16.10;;;13.67;;
3487;SDS011;38546;48.170;11.724;2023-06-19T07:05:46;15.77;;;13.90;;
3487;SDS011;38546;48.170;11.724;2023-06-19T07:08:37;17.67;;;12.73;;
3487;SDS011;38546;48.170;11.724;2023-06-19T07:11:27;19.10;;;14.27;;
3487;SDS011;38546;48.170;11.724;2023-06-19T07:14:16;22.77;;;14.40;;
3487;SDS011;38546;48.170;11.724;2023-06-19T07:17:08;21.10;;;13.90;;
3487;SDS011;38546;48.170;11.724;2023-06-19T07:19:58;18.13;;;14.07;;
3487;SDS011;38546;48.170;11.724;2023-06-19T07:22:47;15.57;;;12.47;;
3487;SDS011;38546;48.170;11.724;2023-06-19T07:25:39;15.87;;;13.07;;
3487;SDS011;38546;48.170;11.724;2023-06-19T07:28:28;14.50;;;12.30;;
3487;SDS011;38546;48.170;11.724;2023-06-19T07:31:18;16.83;;;11.53;;
3487;SDS011;38546;48.170;11.724;2023-06-19T07:34:07;13.40;;;10.40;;
3487;SDS011;38546;48.170;11.724;2023-06-19T07:36:56;17.63;;;12.87;;
3487;SDS011;38546;48.170;11.724;2023-06-19T07:39:45;13.87;;;10.40;;
3487;SDS011;38546;48.170;11.724;2023-06-19T07:42:35;15.73;;;12.03;;
3487;SDS011;38546;48.170;11.724;2023-06-19T07:45:24;13.90;;;10.50;;
3487;SDS011;38546;48.170;11.724;2023-06-19T07:48:13;13.40;;;11.03;;
3487;SDS011;38546;48.170;11.724;2023-06-19T07:51:03;12.23;;;9.80;;
3487;SDS011;38546;48.170;11.724;2023-06-19T07:53:52;14.00;;;11.10;;
3487;SDS011;38546;48.170;11.724;2023-06-19T07:56:41;12.43;;;10.20;;
3487;SDS011;38546;48.170;11.724;2023-06-19T07:59:30;12.57;;;10.50;;
3487;SDS011;38546;48.170;11.724;2023-06-19T08:02:19;10.40;;;9.40;;
3487;SDS011;38546;48.170;11.724;2023-06-19T08:05:09;12.60;;;10.30;;
3487;SDS011;38546;48.170;11.724;2023-06-19T08:07:59;11.70;;;10.53;;
3487;SDS011;38546;48.170;11.724;2023-06-19T08:10:50;10.33;;;9.33;;
3487;SDS011;38546;48.170;11.724;2023-06-19T08:13:39;10.77;;;8.60;;
3487;SDS011;38546;48.170;11.724;2023-06-19T08:16:28;11.27;;;9.30;;
3487;SDS011;38546;48.170;11.724;2023-06-19T08:19:17;12.10;;;8.80;;
3487;SDS011;38546;48.170;11.724;2023-06-19T08:22:07;14.60;;;9.50;;
3487;SDS011;38546;48.170;11.724;2023-06-19T08:24:56;9.33;;;8.43;;
3487;SDS011;38546;48.170;11.724;2023-06-19T08:27:45;10.47;;;8.40;;
3487;SDS011;38546;48.170;11.724;2023-06-19T08:30:35;9.57;;;8.57;;
3487;SDS011;38546;48.170;11.724;2023-06-19T08:33:24;13.00;;;7.67;;
3487;SDS011;38546;48.170;11.724;2023-06-19T08:36:14;9.23;;;7.77;;
3487;SDS011;38546;48.170;11.724;2023-06-19T08:39:03;8.20;;;7.40;;
3487;SDS011;38546;48.170;11.724;2023-06-19T08:41:53;11.20;;;8.07;;
3487;SDS011;38546;48.170;11.724;2023-06-19T08:44:42;11.50;;;8.20;;
3487;SDS011;38546;48.170;11.724;2023-06-19T08:47:31;8.83;;;7.90;;
3487;SDS011;38546;48.170;11.724;2023-06-19T08:50:22;11.87;;;9.47;;
3487;SDS011;38546;48.170;11.724;2023-06-19T08:53:11;12.03;;;10.73;;
3487;SDS011;38546;48.170;11.724;2023-06-19T08:56:01;12.37;;;10.10;;
3487;SDS011;38546;48.170;11.724;2023-06-19T08:58:53;11.80;;;9.10;;
3487;SDS011;38546;48.170;11.724;2023-06-19T09:01:53;11.30;;;8.53;;
3487;SDS011;38546;48.170;11.724;2023-06-19T09:04:43;11.57;;;8.87;;
3487;SDS011;38546;48.170;11.724;2023-06-19T09:07:33;11.63;;;9.70;;
3487;SDS011;38546;48.170;11.724;2023-06-19T09:10:22;11.33;;;9.40;;
3487;SDS011;38546;48.170;11.724;2023-06-19T09:13:13;9.40;;;8.40;;
3487;SDS011;38546;48.170;11.724;2023-06-19T09:16:06;6.80;;;5.90;;
3487;SDS011;38546;48.170;11.724;2023-06-19T09:18:56;5.53;;;5.13;;
3487;SDS011;38546;48.170;11.724;2023-06-19T09:21:46;11.00;;;6.00;;
3487;SDS011;38546;48.170;11.724;2023-06-19T09:24:39;5.70;;;4.07;;
3487;SDS011;38546;48.170;11.724;2023-06-19T09:27:33;4.60;;;3.80;;
3487;SDS011;38546;48.170;11.724;2023-06-19T09:30:23;5.70;;;4.10;;
3487;SDS011;38546;48.170;11.724;2023-06-19T09:33:13;4.87;;;4.37;;
3487;SDS011;38546;48.170;11.724;2023-06-19T09:36:03;5.57;;;5.03;;
3487;SDS011;38546;48.170;11.724;2023-06-19T09:38:54;5.90;;;5.40;;
3487;SDS011;38546;48.170;11.724;2023-06-19T09:41:45;6.10;;;5.13;;
3487;SDS011;38546;48.170;11.724;2023-06-19T09:44:47;6.23;;;5.43;;
3487;SDS011;38546;48.170;11.724;2023-06-19T09:47:43;5.70;;;5.20;;
3487;SDS011;38546;48.170;11.724;2023-06-19T09:50:35;5.77;;;5.20;;
3487;SDS011;38546;48.170;11.724;2023-06-19T09:53:26;6.00;;;5.47;;
3487;SDS011;38546;48.170;11.724;2023-06-19T09:56:16;6.30;;;5.70;;
3487;SDS011;38546;48.170;11.724;2023-06-19T09:59:10;5.90;;;5.33;;
3487;SDS011;38546;48.170;11.724;2023-06-19T10:02:01;6.50;;;5.90;;
3487;SDS011;38546;48.170;11.724;2023-06-19T10:04:55;6.97;;;6.00;;
3487;SDS011;38546;48.170;11.724;2023-06-19T10:07:46;5.90;;;5.30;;
3487;SDS011;38546;48.170;11.724;2023-06-19T10:10:36;6.03;;;5.43;;
3487;SDS011;38546;48.170;11.724;2023-06-19T10:13:35;7.00;;;6.40;;
3487;SDS011;38546;48.170;11.724;2023-06-19T10:16:31;6.20;;;5.60;;
3487;SDS011;38546;48.170;11.724;2023-06-19T10:19:21;6.57;;;5.77;;
3487;SDS011;38546;48.170;11.724;2023-06-19T10:22:18;9.20;;;7.07;;
3487;SDS011;38546;48.170;11.724;2023-06-19T10:25:19;6.93;;;6.30;;
3487;SDS011;38546;48.170;11.724;2023-06-19T10:28:17;6.63;;;6.00;;
3487;SDS011;38546;48.170;11.724;2023-06-19T10:31:09;7.77;;;6.97;;
3487;SDS011;38546;48.170;11.724;2023-06-19T10:33:58;12.60;;;9.90;;
3487;SDS011;38546;48.170;11.724;2023-06-19T10:36:48;10.70;;;9.60;;
3487;SDS011;38546;48.170;11.724;2023-06-19T10:39:37;8.67;;;7.67;;
3487;SDS011;38546;48.170;11.724;2023-06-19T10:42:27;9.73;;;8.73;;
3487;SDS011;38546;48.170;11.724;2023-06-19T10:45:16;5.87;;;5.27;;
3487;SDS011;38546;48.170;11.724;2023-06-19T10:48:06;6.90;;;6.30;;
3487;SDS011;38546;48.170;11.724;2023-06-19T10:50:56;5.93;;;5.43;;
3487;SDS011;38546;48.170;11.724;2023-06-19T10:53:45;6.33;;;5.57;;
3487;SDS011;38546;48.170;11.724;2023-06-19T10:56:35;6.50;;;5.93;;
3487;SDS011;38546;48.170;11.724;2023-06-19T10:59:25;7.43;;;6.73;;
3487;SDS011;38546;48.170;11.724;2023-06-19T11:02:17;6.77;;;5.93;;
3487;SDS011;38546;48.170;11.724;2023-06-19T11:05:07;6.00;;;5.50;;
3487;SDS011;38546;48.170;11.724;2023-06-19T11:07:57;6.60;;;6.00;;
3487;SDS011;38546;48.170;11.724;2023-06-19T11:10:48;6.50;;;5.90;;
3487;SDS011;38546;48.170;11.724;2023-06-19T11:13:39;5.37;;;4.87;;
3487;SDS011;38546;48.170;11.724;2023-06-19T11:16:31;7.73;;;6.07;;
3487;SDS011;38546;48.170;11.724;2023-06-19T11:19:22;6.13;;;5.53;;
3487;SDS011;38546;48.170;11.724;2023-06-19T11:22:19;7.20;;;5.10;;
3487;SDS011;38546;48.170;11.724;2023-06-19T11:25:09;5.37;;;4.87;;
3487;SDS011;38546;48.170;11.724;2023-06-19T11:27:59;6.70;;;6.10;;
3487;SDS011;38546;48.170;11.724;2023-06-19T11:30:57;5.90;;;5.40;;
3487;SDS011;38546;48.170;11.724;2023-06-19T11:34:00;5.77;;;5.27;;
3487;SDS011;38546;48.170;11.724;2023-06-19T11:36:52;5.73;;;5.10;;
3487;SDS011;38546;48.170;11.724;2023-06-19T11:39:44;7.17;;;5.97;;
3487;SDS011;38546;48.170;11.724;2023-06-19T11:42:43;6.27;;;5.63;;
3487;SDS011;38546;48.170;11.724;2023-06-19T11:45:44;6.97;;;6.37;;
3487;SDS011;38546;48.170;11.724;2023-06-19T11:48:36;5.90;;;5.40;;
3487;SDS011;38546;48.170;11.724;2023-06-19T11:51:27;6.50;;;5.90;;
3487;SDS011;38546;48.170;11.724;2023-06-19T11:54:17;6.10;;;5.50;;
3487;SDS011;38546;48.170;11.724;2023-06-19T11:57:06;5.67;;;5.07;;
3487;SDS011;38546;48.170;11.724;2023-06-19T12:00:00;6.13;;;5.37;;
3487;SDS011;38546;48.170;11.724;2023-06-19T12:02:50;5.30;;;4.90;;
3487;SDS011;38546;48.170;11.724;2023-06-19T12:05:42;6.40;;;5.50;;
3487;SDS011;38546;48.170;11.724;2023-06-19T12:08:32;5.40;;;4.90;;
3487;SDS011;38546;48.170;11.724;2023-06-19T12:11:22;5.70;;;5.30;;
3487;SDS011;38546;48.170;11.724;2023-06-19T12:14:11;6.13;;;5.53;;
3487;SDS011;38546;48.170;11.724;2023-06-19T12:17:02;5.10;;;4.70;;
3487;SDS011;38546;48.170;11.724;2023-06-19T12:19:52;6.00;;;5.50;;
3487;SDS011;38546;48.170;11.724;2023-06-19T12:22:42;5.00;;;4.60;;
3487;SDS011;38546;48.170;11.724;2023-06-19T12:25:31;7.40;;;4.90;;
3487;SDS011;38546;48.170;11.724;2023-06-19T12:28:20;4.87;;;4.57;;
3487;SDS011;38546;48.170;11.724;2023-06-19T12:31:10;6.00;;;5.40;;
3487;SDS011;38546;48.170;11.724;2023-06-19T12:33:59;7.50;;;5.77;;
3487;SDS011;38546;48.170;11.724;2023-06-19T12:36:50;5.93;;;5.33;;
3487;SDS011;38546;48.170;11.724;2023-06-19T12:39:40;5.80;;;5.30;;
3487;SDS011;38546;48.170;11.724;2023-06-19T12:42:30;6.00;;;5.50;;
3487;SDS011;38546;48.170;11.724;2023-06-19T12:45:19;6.30;;;5.50;;
3487;SDS011;38546;48.170;11.724;2023-06-19T12:48:09;7.40;;;5.60;;
3487;SDS011;38546;48.170;11.724;2023-06-19T12:50:59;5.87;;;5.37;;
3487;SDS011;38546;48.170;11.724;2023-06-19T12:53:49;6.40;;;5.60;;
3487;SDS011;38546;48.170;11.724;2023-06-19T12:56:38;6.80;;;5.90;;
3487;SDS011;38546;48.170;11.724;2023-06-19T12:59:28;5.90;;;5.40;;
3487;SDS011;38546;48.170;11.724;2023-06-19T13:02:18;6.27;;;5.70;;
3487;SDS011;38546;48.170;11.724;2023-06-19T13:05:07;6.93;;;6.33;;
3487;SDS011;38546;48.170;11.724;2023-06-19T13:07:57;6.63;;;5.57;;
3487;SDS011;38546;48.170;11.724;2023-06-19T13:10:46;7.47;;;6.00;;
3487;SDS011;38546;48.170;11.724;2023-06-19T13:13:36;7.37;;;6.00;;
3487;SDS011;38546;48.170;11.724;2023-06-19T13:16:26;6.30;;;5.80;;
3487;SDS011;38546;48.170;11.724;2023-06-19T13:19:16;5.87;;;5.37;;
3487;SDS011;38546;48.170;11.724;2023-06-19T13:22:07;6.13;;;5.53;;
3487;SDS011;38546;48.170;11.724;2023-06-19T13:24:57;6.20;;;5.60;;
3487;SDS011;38546;48.170;11.724;2023-06-19T13:27:46;6.80;;;6.20;;
3487;SDS011;38546;48.170;11.724;2023-06-19T13:30:35;6.80;;;6.00;;
3487;SDS011;38546;48.170;11.724;2023-06-19T13:33:25;9.33;;;6.40;;
3487;SDS011;38546;48.170;11.724;2023-06-19T13:36:14;6.80;;;6.20;;
3487;SDS011;38546;48.170;11.724;2023-06-19T13:39:04;6.60;;;6.00;;
3487;SDS011;38546;48.170;11.724;2023-06-19T13:41:53;6.10;;;5.60;;
3487;SDS011;38546;48.170;11.724;2023-06-19T13:44:43;6.07;;;5.57;;
3487;SDS011;38546;48.170;11.724;2023-06-19T13:47:32;6.27;;;5.60;;
3487;SDS011;38546;48.170;11.724;2023-06-19T13:50:21;5.73;;;5.23;;
3487;SDS011;38546;48.170;11.724;2023-06-19T13:53:11;6.33;;;5.73;;
3487;SDS011;38546;48.170;11.724;2023-06-19T13:56:01;6.60;;;6.00;;
3487;SDS011;38546;48.170;11.724;2023-06-19T13:58:54;6.63;;;6.00;;
3487;SDS011;38546;48.170;11.724;2023-06-19T14:01:43;7.17;;;5.83;;
3487;SDS011;38546;48.170;11.724;2023-06-19T14:04:33;6.40;;;5.80;;
3487;SDS011;38546;48.170;11.724;2023-06-19T14:07:22;6.90;;;6.30;;
3487;SDS011;38546;48.170;11.724;2023-06-19T14:10:12;6.43;;;5.83;;
3487;SDS011;38546;48.170;11.724;2023-06-19T14:13:02;6.97;;;6.33;;
3487;SDS011;38546;48.170;11.724;2023-06-19T14:15:52;5.73;;;5.20;;
3487;SDS011;38546;48.170;11.724;2023-06-19T14:18:42;5.67;;;5.27;;
3487;SDS011;38546;48.170;11.724;2023-06-19T14:21:31;6.37;;;5.83;;
3487;SDS011;38546;48.170;11.724;2023-06-19T14:24:21;6.80;;;6.20;;
3487;SDS011;38546;48.170;11.724;2023-06-19T14:27:12;7.00;;;5.90;;
3487;SDS011;38546;48.170;11.724;2023-06-19T14:30:02;7.00;;;6.30;;
3487;SDS011;38546;48.170;11.724;2023-06-19T14:32:53;8.93;;;6.23;;
3487;SDS011;38546;48.170;11.724;2023-06-19T14:35:42;8.93;;;6.40;;
3487;SDS011;38546;48.170;11.724;2023-06-19T14:38:34;7.30;;;6.10;;
3487;SDS011;38546;48.170;11.724;2023-06-19T14:41:23;6.80;;;6.17;;
3487;SDS011;38546;48.170;11.724;2023-06-19T14:44:13;6.93;;;6.33;;
3487;SDS011;38546;48.170;11.724;2023-06-19T14:47:04;7.93;;;6.90;;
3487;SDS011;38546;48.170;11.724;2023-06-19T14:49:54;7.07;;;6.37;;
3487;SDS011;38546;48.170;11.724;2023-06-19T14:52:43;6.93;;;6.23;;
3487;SDS011;38546;48.170;11.724;2023-06-19T14:55:33;8.10;;;7.10;;
3487;SDS011;38546;48.170;11.724;2023-06-19T14:58:23;8.10;;;6.63;;
3487;SDS011;38546;48.170;11.724;2023-06-19T15:01:17;7.77;;;7.07;;
3487;SDS011;38546;48.170;11.724;2023-06-19T15:04:07;8.07;;;6.83;;
3487;SDS011;38546;48.170;11.724;2023-06-19T15:06:56;8.33;;;7.40;;
3487;SDS011;38546;48.170;11.724;2023-06-19T15:09:45;7.97;;;7.17;;
3487;SDS011;38546;48.170;11.724;2023-06-19T15:12:34;8.67;;;6.63;;
3487;SDS011;38546;48.170;11.724;2023-06-19T15:15:23;8.37;;;6.97;;
3487;SDS011;38546;48.170;11.724;2023-06-19T15:18:13;10.40;;;7.20;;
3487;SDS011;38546;48.170;11.724;2023-06-19T15:21:02;8.60;;;6.80;;
3487;SDS011;38546;48.170;11.724;2023-06-19T15:23:54;7.47;;;6.77;;
3487;SDS011;38546;48.170;11.724;2023-06-19T15:26:44;13.60;;;7.07;;
3487;SDS011;38546;48.170;11.724;2023-06-19T15:29:34;6.97;;;6.37;;
3487;SDS011;38546;48.170;11.724;2023-06-19T15:32:24;7.77;;;6.97;;
3487;SDS011;38546;48.170;11.724;2023-06-19T15:35:13;7.43;;;5.90;;
3487;SDS011;38546;48.170;11.724;2023-06-19T15:38:03;10.73;;;8.27;;
3487;SDS011;38546;48.170;11.724;2023-06-19T15:40:52;7.60;;;6.83;;
3487;SDS011;38546;48.170;11.724;2023-06-19T15:43:42;7.97;;;6.40;;
3487;SDS011;38546;48.170;11.724;2023-06-19T15:46:31;6.50;;;5.73;;
3487;SDS011;38546;48.170;11.724;2023-06-19T15:49:21;8.07;;;7.27;;
3487;SDS011;38546;48.170;11.724;2023-06-19T15:52:10;8.03;;;6.73;;
3487;SDS011;38546;48.170;11.724;2023-06-19T15:55:00;8.33;;;7.30;;
3487;SDS011;38546;48.170;11.724;2023-06-19T15:57:49;7.77;;;7.07;;
3487;SDS011;38546;48.170;11.724;2023-06-19T16:00:39;8.07;;;6.63;;
3487;SDS011;38546;48.170;11.724;2023-06-19T16:03:29;9.47;;;7.20;;
3487;SDS011;38546;48.170;11.724;2023-06-19T16:06:20;7.13;;;6.40;;
3487;SDS011;38546;48.170;11.724;2023-06-19T16:09:09;6.93;;;6.33;;
3487;SDS011;38546;48.170;11.724;2023-06-19T16:11:58;7.57;;;6.87;;
3487;SDS011;38546;48.170;11.724;2023-06-19T16:14:48;7.87;;;7.10;;
3487;SDS011;38546;48.170;11.724;2023-06-19T16:17:37;7.00;;;6.40;;
3487;SDS011;38546;48.170;11.724;2023-06-19T16:20:31;8.50;;;6.90;;
3487;SDS011;38546;48.170;11.724;2023-06-19T16:23:21;8.07;;;7.27;;
3487;SDS011;38546;48.170;11.724;2023-06-19T16:26:15;7.70;;;6.90;;
3487;SDS011;38546;48.170;11.724;2023-06-19T16:29:05;7.20;;;6.50;;
3487;SDS011;38546;48.170;11.724;2023-06-19T16:31:54;8.33;;;7.57;;
3487;SDS011;38546;48.170;11.724;2023-06-19T16:34:43;7.87;;;7.10;;
3487;SDS011;38546;48.170;11.724;2023-06-19T16:37:33;8.20;;;7.17;;
3487;SDS011;38546;48.170;11.724;2023-06-19T16:40:23;7.47;;;6.77;;
3487;SDS011;38546;48.170;11.724;2023-06-19T16:43:13;8.53;;;6.97;;
3487;SDS011;38546;48.170;11.724;2023-06-19T16:46:02;8.07;;;7.27;;
3487;SDS011;38546;48.170;11.724;2023-06-19T16:48:52;7.33;;;6.63;;
3487;SDS011;38546;48.170;11.724;2023-06-19T16:51:41;9.10;;;6.93;;
3487;SDS011;38546;48.170;11.724;2023-06-19T16:54:31;6.87;;;6.10;;